createdAt,value
2022-09-24T00:01:40.671Z,28.48
2022-09-24T00:04:30.973Z,32.75
2022-09-24T00:07:22.580Z,31.30
2022-09-24T00:10:14.270Z,33.30
2022-09-24T00:13:05.536Z,30.42
2022-09-24T00:15:56.147Z,37.45
2022-09-24T00:18:46.716Z,25.63
2022-09-24T00:21:39.372Z,28.45
2022-09-24T00:24:48.036Z,35.90
2022-09-24T00:27:39.960Z,40.33
2022-09-24T00:30:31.882Z,41.60
2022-09-24T00:33:23.154Z,45.25
2022-09-24T00:36:13.709Z,43.22
2022-09-24T00:39:04.018Z,41.10
2022-09-24T00:41:54.059Z,40.00
2022-09-24T00:44:52.314Z,34.30
2022-09-24T00:47:46.313Z,33.08
2022-09-24T00:50:40.300Z,25.23
2022-09-24T00:53:34.596Z,21.48
2022-09-24T00:56:26.538Z,20.02
2022-09-24T00:59:20.608Z,19.05
2022-09-24T01:02:11.365Z,18.20
2022-09-24T01:05:02.425Z,15.93
2022-09-24T01:07:52.860Z,14.82
2022-09-24T01:10:53.111Z,14.68
2022-09-24T01:14:11.534Z,13.73
2022-09-24T01:17:23.306Z,15.18
2022-09-24T01:20:29.402Z,18.92
2022-09-24T01:23:37.706Z,21.02
2022-09-24T01:27:04.716Z,20.75
2022-09-24T01:29:59.021Z,21.88
2022-09-24T01:33:04.973Z,21.75
2022-09-24T01:36:00.336Z,18.83
2022-09-24T01:38:52.497Z,18.45
2022-09-24T01:41:46.583Z,16.08
2022-09-24T01:44:41.587Z,15.25
2022-09-24T01:47:36.644Z,14.88
2022-09-24T01:50:28.119Z,14.82
2022-09-24T01:53:19.374Z,15.45
2022-09-24T01:56:29.788Z,14.30
2022-09-24T01:59:29.601Z,17.00
2022-09-24T02:02:30.356Z,17.77
2022-09-24T02:05:36.163Z,17.17
2022-09-24T02:08:36.095Z,16.20
2022-09-24T02:11:27.226Z,16.85
2022-09-24T02:14:18.130Z,18.05
2022-09-24T02:17:09.616Z,19.52
2022-09-24T02:20:07.709Z,19.13
2022-09-24T02:22:59.084Z,21.73
2022-09-24T02:25:52.147Z,19.65
2022-09-24T02:28:43.011Z,20.77
2022-09-24T02:31:38.182Z,20.58
2022-09-24T02:34:39.737Z,22.35
2022-09-24T02:37:31.258Z,22.73
2022-09-24T02:40:21.788Z,15.20
2022-09-24T02:43:15.328Z,16.90
2022-09-24T02:46:05.509Z,15.50
2022-09-24T02:48:56.641Z,14.88
2022-09-24T02:51:48.235Z,13.95
2022-09-24T02:54:39.903Z,13.43
2022-09-24T02:57:30.804Z,13.18
2022-09-24T03:00:22.534Z,13.63
2022-09-24T03:03:13.714Z,14.38
2022-09-24T03:06:03.849Z,13.40
2022-09-24T03:08:55.653Z,16.08
2022-09-24T03:11:48.003Z,15.45
2022-09-24T03:14:40.102Z,15.82
2022-09-24T03:17:30.518Z,15.63
2022-09-24T03:21:51.616Z,15.38
2022-09-24T03:24:42.501Z,15.27
2022-09-24T03:27:33.871Z,13.25
2022-09-24T03:30:43.079Z,15.52
2022-09-24T03:33:45.386Z,15.98
2022-09-24T03:36:37.229Z,18.23
2022-09-24T03:39:27.960Z,18.23
2022-09-24T03:42:20.595Z,16.20
2022-09-24T03:45:11.243Z,22.08
2022-09-24T03:48:04.527Z,15.95
2022-09-24T03:50:55.768Z,17.35
2022-09-24T03:53:49.936Z,15.23
2022-09-24T03:56:41.546Z,16.52
2022-09-24T03:59:33.026Z,15.60
2022-09-24T04:02:24.038Z,15.80
2022-09-24T04:05:17.457Z,17.92
2022-09-24T04:08:08.311Z,16.83
2022-09-24T04:10:58.608Z,23.52
2022-09-24T04:13:49.032Z,21.45
2022-09-24T04:16:39.672Z,24.02
2022-09-24T04:19:30.852Z,18.83
2022-09-24T04:22:20.664Z,20.73
2022-09-24T04:25:14.733Z,20.58
2022-09-24T04:28:07.317Z,18.85
2022-09-24T04:30:59.152Z,17.58
2022-09-24T04:33:50.997Z,18.00
2022-09-24T04:36:41.597Z,19.92
2022-09-24T04:39:32.786Z,21.52
2022-09-24T04:42:23.996Z,22.48
2022-09-24T04:45:15.682Z,21.92
2022-09-24T04:48:06.111Z,19.65
2022-09-24T04:50:56.698Z,19.73
2022-09-24T04:53:49.282Z,19.88
2022-09-24T04:56:40.338Z,19.58
2022-09-24T04:59:30.952Z,19.70
2022-09-24T05:02:21.084Z,19.98
2022-09-24T05:05:15.469Z,19.88
2022-09-24T05:08:06.265Z,19.58
2022-09-24T05:11:00.139Z,18.20
2022-09-24T05:13:50.473Z,19.52
2022-09-24T05:16:41.350Z,18.58
2022-09-24T05:19:32.227Z,19.00
2022-09-24T05:22:23.581Z,17.90
2022-09-24T05:25:15.110Z,18.00
2022-09-24T05:28:05.457Z,19.52
2022-09-24T05:31:00.088Z,29.02
2022-09-24T05:33:51.398Z,19.33
2022-09-24T05:36:44.571Z,18.15
2022-09-24T05:39:35.565Z,19.10
2022-09-24T05:42:25.951Z,19.23
2022-09-24T05:45:19.519Z,19.25
2022-09-24T05:48:10.659Z,19.77
2022-09-24T05:51:04.921Z,20.08
2022-09-24T05:53:55.098Z,20.45
2022-09-24T05:56:46.131Z,20.73
2022-09-24T05:59:36.649Z,19.35
2022-09-24T06:02:27.493Z,19.10
2022-09-24T06:05:21.092Z,17.50
2022-09-24T06:08:11.623Z,17.52
2022-09-24T06:11:06.793Z,18.67
2022-09-24T06:13:57.250Z,19.65
2022-09-24T06:16:47.969Z,18.65
2022-09-24T06:19:39.373Z,19.00
2022-09-24T06:22:30.469Z,16.42
2022-09-24T06:25:21.318Z,17.67
2022-09-24T06:28:15.105Z,18.40
2022-09-24T06:31:05.591Z,18.20
2022-09-24T06:33:55.463Z,18.55
2022-09-24T06:36:46.152Z,18.65
2022-09-24T06:39:35.821Z,19.80
2022-09-24T06:42:25.714Z,16.52
2022-09-24T06:45:15.788Z,17.90
2022-09-24T06:48:10.399Z,16.50
2022-09-24T06:51:01.149Z,16.10
2022-09-24T06:54:00.600Z,16.00
2022-09-24T06:56:54.553Z,13.23
2022-09-24T06:59:45.373Z,13.80
2022-09-24T07:02:35.997Z,14.50
2022-09-24T07:05:28.864Z,13.90
2022-09-24T07:08:19.850Z,13.60
2022-09-24T07:11:11.645Z,14.85
2022-09-24T07:14:01.459Z,14.07
2022-09-24T07:16:53.659Z,14.35
2022-09-24T07:19:43.973Z,13.88
2022-09-24T07:22:34.645Z,15.82
2022-09-24T07:25:24.655Z,15.68
2022-09-24T07:28:24.596Z,16.27
2022-09-24T07:31:15.850Z,13.93
2022-09-24T07:34:08.866Z,14.80
2022-09-24T07:37:03.260Z,13.27
2022-09-24T07:39:54.741Z,13.85
2022-09-24T07:42:52.520Z,13.35
2022-09-24T07:45:43.851Z,13.77
2022-09-24T07:48:33.995Z,12.70
2022-09-24T07:51:30.921Z,14.20
2022-09-24T07:54:21.207Z,13.52
2022-09-24T07:57:15.284Z,13.45
2022-09-24T08:00:08.472Z,13.10
2022-09-24T08:03:01.773Z,14.82
2022-09-24T08:05:53.559Z,14.52
2022-09-24T08:08:44.881Z,15.55
2022-09-24T08:11:36.324Z,17.65
2022-09-24T08:14:27.479Z,19.88
2022-09-24T08:17:18.728Z,22.42
2022-09-24T08:20:09.938Z,20.83
2022-09-24T08:23:04.565Z,20.25
2022-09-24T08:25:57.309Z,21.42
2022-09-24T08:28:47.653Z,21.80
2022-09-24T08:31:39.667Z,25.17
2022-09-24T08:34:31.182Z,31.98
2022-09-24T08:37:22.142Z,34.78
2022-09-24T08:40:33.892Z,36.70
2022-09-24T08:43:50.126Z,38.90
2022-09-24T08:47:10.316Z,45.40
2022-09-24T08:50:12.633Z,43.70
2022-09-24T08:53:45.191Z,41.60
2022-09-24T08:56:38.482Z,42.03
2022-09-24T08:59:39.243Z,43.53
2022-09-24T09:03:01.619Z,43.65
2022-09-24T09:05:52.355Z,38.13
2022-09-24T09:09:08.131Z,42.42
2022-09-24T09:12:25.125Z,43.00
2022-09-24T09:15:22.356Z,48.65
2022-09-24T09:18:30.686Z,58.00
2022-09-24T09:21:27.028Z,50.67
2022-09-24T09:24:29.753Z,47.13
2022-09-24T09:27:21.628Z,45.28
2022-09-24T09:30:16.842Z,49.20
2022-09-24T09:33:34.523Z,50.38
2022-09-24T09:36:42.766Z,50.22
2022-09-24T09:39:38.823Z,61.22
2022-09-24T09:42:41.956Z,73.90
2022-09-24T09:45:49.480Z,54.00
2022-09-24T09:49:04.911Z,49.28
2022-09-24T09:51:56.485Z,54.70
2022-09-24T09:54:47.228Z,47.00
2022-09-24T09:57:41.073Z,45.72
2022-09-24T10:00:38.029Z,41.80
2022-09-24T10:03:32.901Z,43.40
2022-09-24T10:06:34.469Z,43.40
2022-09-24T10:09:24.847Z,34.53
2022-09-24T10:12:22.736Z,39.28
2022-09-24T10:15:26.473Z,32.53
2022-09-24T10:18:17.935Z,36.90
2022-09-24T10:21:13.494Z,44.63
2022-09-24T10:24:07.372Z,30.88
2022-09-24T10:26:57.912Z,34.83
2022-09-24T10:30:06.929Z,35.17
2022-09-24T10:33:02.574Z,31.48
2022-09-24T10:35:53.324Z,30.08
2022-09-24T10:38:45.321Z,29.27
2022-09-24T10:41:37.383Z,29.17
2022-09-24T10:44:36.699Z,30.10
2022-09-24T10:47:32.724Z,25.60
2022-09-24T10:50:48.703Z,19.05
2022-09-24T10:53:57.144Z,24.10
2022-09-24T10:56:55.135Z,18.77
2022-09-24T10:59:59.251Z,22.45
2022-09-24T11:03:03.079Z,23.00
2022-09-24T11:05:55.226Z,20.63
2022-09-24T11:09:10.422Z,19.05
2022-09-24T11:12:23.459Z,20.25
2022-09-24T11:15:52.600Z,20.13
2022-09-24T11:18:58.350Z,19.17
2022-09-24T11:22:19.197Z,22.95
2022-09-24T11:25:30.064Z,21.38
2022-09-24T11:28:34.463Z,15.02
2022-09-24T11:31:37.413Z,14.57
2022-09-24T11:35:01.407Z,14.63
2022-09-24T11:38:11.248Z,14.32
2022-09-24T11:41:11.744Z,16.45
2022-09-24T11:44:53.756Z,16.10
2022-09-24T11:48:20.172Z,22.27
2022-09-24T11:51:37.003Z,14.90
2022-09-24T11:54:30.777Z,14.80
2022-09-24T11:57:27.392Z,11.80
2022-09-24T12:00:21.723Z,13.05
2022-09-24T12:04:14.134Z,12.00
2022-09-24T12:07:20.111Z,12.15
2022-09-24T12:10:32.383Z,12.82
2022-09-24T12:13:36.815Z,18.38
2022-09-24T12:16:35.033Z,18.42
2022-09-24T12:19:47.976Z,16.10
2022-09-24T12:22:43.114Z,15.63
2022-09-24T12:25:43.906Z,17.42
2022-09-24T12:29:20.878Z,14.68
2022-09-24T12:32:44.296Z,14.93
2022-09-24T12:36:10.554Z,14.82
2022-09-24T12:39:08.123Z,13.82
2022-09-24T12:42:08.615Z,14.10
2022-09-24T12:45:01.692Z,12.80
2022-09-24T12:48:00.806Z,12.57
2022-09-24T12:51:00.525Z,14.10
2022-09-24T12:54:29.312Z,12.98
2022-09-24T12:57:26.394Z,11.73
2022-09-24T13:00:42.705Z,10.75
2022-09-24T13:03:41.927Z,12.65
2022-09-24T13:06:36.819Z,11.13
2022-09-24T13:09:38.475Z,12.70
2022-09-24T13:12:35.103Z,18.00
2022-09-24T13:15:30.902Z,11.65
2022-09-24T13:18:26.860Z,12.10
2022-09-24T13:21:26.379Z,11.15
2022-09-24T13:24:31.300Z,11.98
2022-09-24T13:27:39.758Z,13.40
2022-09-24T13:30:33.487Z,13.45
2022-09-24T13:33:35.662Z,12.38
2022-09-24T13:36:46.154Z,14.15
2022-09-24T13:40:02.429Z,13.80
2022-09-24T13:43:24.154Z,13.38
2022-09-24T13:46:18.107Z,13.40
2022-09-24T13:49:17.933Z,15.48
2022-09-24T13:52:34.794Z,12.95
2022-09-24T13:55:37.463Z,13.48
2022-09-24T13:58:43.342Z,15.60
2022-09-24T14:01:39.197Z,14.30
2022-09-24T14:04:29.317Z,14.27
2022-09-24T14:07:22.811Z,14.45
2022-09-24T14:10:16.301Z,11.48
2022-09-24T14:13:27.150Z,12.00
2022-09-24T14:16:20.605Z,9.75
2022-09-24T14:19:16.768Z,8.65
2022-09-24T14:22:09.025Z,8.98
2022-09-24T14:25:08.389Z,9.82
2022-09-24T14:28:00.997Z,9.07
2022-09-24T14:30:54.992Z,8.73
2022-09-24T14:33:45.151Z,9.75
2022-09-24T14:36:37.948Z,11.15
2022-09-24T14:39:30.721Z,14.20
2022-09-24T14:42:27.278Z,10.52
2022-09-24T14:45:32.130Z,10.40
2022-09-24T14:48:36.898Z,11.18
2022-09-24T14:51:32.647Z,9.60
2022-09-24T14:54:48.715Z,8.52
2022-09-24T14:57:47.577Z,8.13
2022-09-24T15:00:50.542Z,9.13
2022-09-24T15:03:45.323Z,9.32
2022-09-24T15:06:39.617Z,9.25
2022-09-24T15:09:31.352Z,8.85
2022-09-24T15:12:37.007Z,9.07
2022-09-24T15:15:31.996Z,8.90
2022-09-24T15:18:26.917Z,8.45
2022-09-24T15:21:16.779Z,9.13
2022-09-24T15:24:06.727Z,9.20
2022-09-24T15:27:08.192Z,9.95
2022-09-24T15:30:02.938Z,9.55
2022-09-24T15:32:53.945Z,8.30
2022-09-24T15:35:45.526Z,9.18
2022-09-24T15:38:35.536Z,10.50
2022-09-24T15:41:30.974Z,11.00
2022-09-24T15:44:31.296Z,11.63
2022-09-24T15:47:24.678Z,11.80
2022-09-24T15:50:14.917Z,13.45
2022-09-24T15:53:05.066Z,12.60
2022-09-24T15:55:57.510Z,13.85
2022-09-24T15:58:47.722Z,14.02
2022-09-24T16:01:37.803Z,13.15
2022-09-24T16:04:29.164Z,12.10
2022-09-24T16:07:20.121Z,12.35
2022-09-24T16:10:14.526Z,11.70
2022-09-24T16:13:05.169Z,12.75
2022-09-24T16:16:03.138Z,12.07
2022-09-24T16:18:56.123Z,12.55
2022-09-24T16:21:47.014Z,12.77
2022-09-24T16:24:37.857Z,12.80
2022-09-24T16:27:28.123Z,13.80
2022-09-24T16:30:18.462Z,13.23
2022-09-24T16:33:08.688Z,14.48
2022-09-24T16:35:58.584Z,15.32
2022-09-24T16:38:48.583Z,15.40
2022-09-24T16:41:39.463Z,16.20
2022-09-24T16:44:32.961Z,18.00
2022-09-24T16:47:23.610Z,20.95
2022-09-24T16:50:14.388Z,23.73
2022-09-24T16:53:04.249Z,25.50
2022-09-24T16:55:54.233Z,29.15
2022-09-24T16:58:45.435Z,33.00
2022-09-24T17:01:36.408Z,33.65
2022-09-24T17:04:27.368Z,32.80
2022-09-24T17:07:18.090Z,36.53
2022-09-24T17:10:14.982Z,37.03
2022-09-24T17:13:05.184Z,38.95
2022-09-24T17:15:55.975Z,40.83
2022-09-24T17:18:46.813Z,41.05
2022-09-24T17:21:38.174Z,42.65
2022-09-24T17:24:28.434Z,41.13
2022-09-24T17:27:19.112Z,41.38
2022-09-24T17:30:10.699Z,41.85
2022-09-24T17:33:00.791Z,43.40
2022-09-24T17:36:03.187Z,43.42
2022-09-24T17:38:53.496Z,42.58
2022-09-24T17:41:43.748Z,43.85
2022-09-24T17:44:34.311Z,42.67
2022-09-24T17:47:24.144Z,41.80
2022-09-24T17:50:14.632Z,41.90
2022-09-24T17:53:05.291Z,45.22
2022-09-24T17:55:56.082Z,41.30
2022-09-24T17:58:48.374Z,40.72
2022-09-24T18:01:39.798Z,43.08
2022-09-24T18:04:32.572Z,43.25
2022-09-24T18:07:24.578Z,42.90
2022-09-24T18:10:14.806Z,42.20
2022-09-24T18:13:05.597Z,40.67
2022-09-24T18:15:55.770Z,40.13
2022-09-24T18:18:46.297Z,40.90
2022-09-24T18:21:36.344Z,37.63
2022-09-24T18:24:26.618Z,40.85
2022-09-24T18:27:17.537Z,40.47
2022-09-24T18:30:13.066Z,42.38
2022-09-24T18:33:06.270Z,40.83
2022-09-24T18:35:56.904Z,40.67
2022-09-24T18:38:47.155Z,39.53
2022-09-24T18:41:39.640Z,41.10
2022-09-24T18:44:31.679Z,42.10
2022-09-24T18:47:21.851Z,42.08
2022-09-24T18:50:12.376Z,40.03
2022-09-24T18:53:04.108Z,37.03
2022-09-24T18:55:55.364Z,36.58
2022-09-24T18:58:50.219Z,40.08
2022-09-24T19:01:41.358Z,35.53
2022-09-24T19:04:32.635Z,35.08
2022-09-24T19:07:24.096Z,33.85
2022-09-24T19:10:14.302Z,34.42
2022-09-24T19:13:05.800Z,33.63
2022-09-24T19:15:58.368Z,35.30
2022-09-24T19:18:48.393Z,33.28
2022-09-24T19:21:40.442Z,30.42
2022-09-24T19:24:30.391Z,31.73
2022-09-24T19:27:20.491Z,30.02
2022-09-24T19:30:11.583Z,30.55
2022-09-24T19:33:03.846Z,29.75
2022-09-24T19:35:59.404Z,27.90
2022-09-24T19:38:49.296Z,28.20
2022-09-24T19:41:42.174Z,28.85
2022-09-24T19:44:32.095Z,28.55
2022-09-24T19:47:28.084Z,27.52
2022-09-24T19:50:19.012Z,27.33
2022-09-24T19:53:12.125Z,26.27
2022-09-24T19:56:02.314Z,26.45
2022-09-24T19:58:54.159Z,25.67
2022-09-24T20:01:45.286Z,25.67
2022-09-24T20:04:36.989Z,24.30
2022-09-24T20:07:29.433Z,23.58
2022-09-24T20:10:19.737Z,24.48
2022-09-24T20:13:14.468Z,23.02
2022-09-24T20:16:06.146Z,24.20
2022-09-24T20:18:58.846Z,23.35
2022-09-24T20:21:49.409Z,22.98
2022-09-24T20:24:39.737Z,23.60
2022-09-24T20:27:48.092Z,22.92
2022-09-24T20:30:39.378Z,22.95
2022-09-24T20:33:30.787Z,23.52
2022-09-24T20:36:24.813Z,24.85
2022-09-24T20:39:15.226Z,23.50
2022-09-24T20:42:07.322Z,24.42
2022-09-24T20:45:01.299Z,25.63
2022-09-24T20:47:57.138Z,29.33
2022-09-24T20:50:48.372Z,31.27
2022-09-24T20:53:39.130Z,29.92
2022-09-24T20:56:33.078Z,31.38
2022-09-24T20:59:23.091Z,30.08
2022-09-24T21:02:13.612Z,29.58
2022-09-24T21:05:03.443Z,29.45
2022-09-24T21:07:53.619Z,28.40
2022-09-24T21:10:44.549Z,27.90
2022-09-24T21:13:36.170Z,28.55
2022-09-24T21:16:28.201Z,29.10
2022-09-24T21:19:18.189Z,27.42
2022-09-24T21:22:08.313Z,28.60
2022-09-24T21:25:01.783Z,27.88
2022-09-24T21:27:52.633Z,28.38
2022-09-24T21:30:44.094Z,28.55
2022-09-24T21:33:35.141Z,26.70
2022-09-24T21:36:27.345Z,26.50
2022-09-24T21:39:18.888Z,26.58
2022-09-24T21:42:09.926Z,25.38
2022-09-24T21:45:02.617Z,23.02
2022-09-24T21:47:56.439Z,24.02
2022-09-24T21:50:46.256Z,22.88
2022-09-24T21:53:36.902Z,23.67
2022-09-24T21:56:27.056Z,22.33
2022-09-24T21:59:36.341Z,22.55
2022-09-24T22:02:28.725Z,21.13
2022-09-24T22:05:21.193Z,20.08
2022-09-24T22:08:13.454Z,19.60
2022-09-24T22:11:09.778Z,19.23
2022-09-24T22:14:03.848Z,19.17
2022-09-24T22:16:54.116Z,20.13
2022-09-24T22:19:44.292Z,18.77
2022-09-24T22:22:34.574Z,20.08
2022-09-24T22:25:25.654Z,19.77
2022-09-24T22:28:20.500Z,20.05
2022-09-24T22:31:15.200Z,21.17
2022-09-24T22:34:23.190Z,21.00
2022-09-24T22:37:16.401Z,21.25
2022-09-24T22:40:10.255Z,22.30
2022-09-24T22:42:59.999Z,21.75
2022-09-24T22:45:50.791Z,21.15
2022-09-24T22:48:41.356Z,32.80
2022-09-24T22:51:35.273Z,34.85
2022-09-24T22:54:28.661Z,38.28
2022-09-24T22:57:19.224Z,34.67
2022-09-24T23:00:10.138Z,34.05
2022-09-24T23:03:01.766Z,33.67
2022-09-24T23:05:52.501Z,35.80
2022-09-24T23:08:44.165Z,33.05
2022-09-24T23:11:35.376Z,30.67
2022-09-24T23:14:25.769Z,31.48
2022-09-24T23:17:16.051Z,27.95
2022-09-24T23:20:07.596Z,27.95
2022-09-24T23:22:58.158Z,28.52
2022-09-24T23:25:48.896Z,22.63
2022-09-24T23:28:41.040Z,20.25
2022-09-24T23:31:34.348Z,20.95
2022-09-24T23:34:24.978Z,20.48
2022-09-24T23:37:14.984Z,19.85
2022-09-24T23:40:10.087Z,20.38
2022-09-24T23:43:00.758Z,20.27
2022-09-24T23:45:54.682Z,18.48
2022-09-24T23:48:44.645Z,17.10
2022-09-24T23:51:35.012Z,17.83
2022-09-24T23:54:25.669Z,19.23
2022-09-24T23:57:15.934Z,17.58
